createdAt,value
2018-08-13T00:14:26.417Z,23.37
2018-08-13T00:18:29.896Z,23.30
2018-08-13T00:22:33.349Z,23.25
2018-08-13T00:26:36.787Z,23.21
2018-08-13T00:30:40.554Z,23.16
2018-08-13T00:34:44.039Z,23.13
2018-08-13T00:38:47.555Z,23.10
2018-08-13T00:42:50.990Z,23.06
2018-08-13T00:46:54.396Z,23.04
2018-08-13T00:50:57.858Z,23.04
2018-08-13T00:55:01.325Z,23.00
2018-08-13T00:59:04.815Z,22.94
2018-08-13T01:03:08.487Z,22.92
2018-08-13T01:07:11.895Z,22.92
2018-08-13T01:11:15.340Z,22.89
2018-08-13T01:15:19.973Z,22.83
2018-08-13T01:19:23.457Z,22.79
2018-08-13T01:23:26.890Z,22.72
2018-08-13T01:27:31.754Z,22.67
2018-08-13T01:31:35.225Z,22.61
2018-08-13T01:35:38.661Z,22.59
2018-08-13T01:39:42.168Z,22.55
2018-08-13T01:48:36.061Z,22.48
2018-08-13T03:06:05.201Z,20.88
2018-08-13T03:10:11.191Z,20.88
2018-08-13T03:14:14.682Z,20.84
2018-08-13T03:18:18.138Z,20.82
2018-08-13T03:22:21.631Z,20.82
2018-08-13T03:26:25.127Z,20.81
2018-08-13T03:30:28.608Z,20.77
2018-08-13T03:34:32.060Z,20.74
2018-08-13T03:38:35.586Z,20.75
2018-08-13T03:42:39.083Z,20.75
2018-08-13T03:46:42.594Z,20.72
2018-08-13T03:50:46.051Z,20.68
2018-08-13T03:54:49.554Z,20.64
2018-08-13T03:58:53.009Z,20.59
2018-08-13T04:02:56.486Z,20.56
2018-08-13T04:07:00.087Z,20.52
2018-08-13T04:11:03.566Z,20.53
2018-08-13T04:15:08.168Z,20.51
2018-08-13T04:19:11.648Z,20.51
2018-08-13T04:23:15.162Z,20.51
2018-08-13T04:27:18.684Z,20.50
2018-08-13T04:31:22.166Z,20.49
2018-08-13T04:35:25.676Z,20.52
2018-08-13T04:39:29.121Z,20.54
2018-08-13T04:43:32.614Z,20.56
2018-08-13T04:47:36.135Z,20.60
2018-08-13T04:51:39.578Z,20.62
2018-08-13T04:55:43.041Z,20.65
2018-08-13T04:59:46.531Z,20.67
2018-08-13T05:03:50.057Z,20.72
2018-08-13T05:07:54.612Z,20.73
2018-08-13T05:11:58.121Z,20.77
2018-08-13T05:16:01.577Z,20.87
2018-08-13T05:20:05.961Z,20.97
2018-08-13T05:24:09.467Z,21.08
2018-08-13T05:28:12.908Z,21.19
2018-08-13T05:32:16.368Z,21.32
2018-08-13T05:36:19.880Z,21.45
2018-08-13T05:40:23.306Z,21.58
2018-08-13T05:44:26.895Z,21.72
2018-08-13T05:48:30.354Z,21.84
2018-08-13T05:52:33.819Z,21.95
2018-08-13T05:56:37.241Z,22.08
2018-08-13T06:05:06.887Z,22.26
2018-08-13T06:09:12.517Z,22.40
2018-08-13T06:13:16.045Z,22.54
2018-08-13T06:17:19.575Z,22.70
2018-08-13T06:21:23.073Z,22.80
2018-08-13T06:25:26.621Z,22.88
2018-08-13T06:29:30.091Z,22.94
2018-08-13T06:33:33.582Z,23.08
2018-08-13T06:37:37.165Z,23.27
2018-08-13T06:41:40.638Z,23.38
2018-08-13T06:45:44.150Z,23.55
2018-08-13T06:49:47.660Z,23.67
2018-08-13T06:53:51.184Z,23.78
2018-08-13T06:57:54.772Z,23.85
2018-08-13T07:01:58.277Z,23.96
2018-08-13T07:06:01.896Z,24.08
2018-08-13T07:10:09.274Z,24.24
2018-08-13T07:14:12.697Z,24.38
2018-08-13T07:18:16.172Z,24.55
2018-08-13T07:22:19.665Z,24.71
2018-08-13T07:26:23.110Z,24.89
2018-08-13T07:30:26.527Z,25.12
2018-08-13T07:34:30.023Z,25.32
2018-08-13T07:38:33.600Z,25.53
2018-08-13T07:42:37.062Z,25.68
2018-08-13T07:46:40.756Z,25.71
2018-08-13T07:50:44.242Z,25.85
2018-08-13T07:54:47.761Z,26.00
2018-08-13T07:58:51.339Z,26.14
2018-08-13T08:02:54.810Z,26.19
2018-08-13T08:06:58.317Z,26.28
2018-08-13T08:11:01.779Z,26.40
2018-08-13T08:15:09.110Z,26.60
2018-08-13T08:19:12.593Z,26.79
2018-08-13T08:23:16.032Z,26.96
2018-08-13T08:27:19.515Z,27.02
2018-08-13T08:31:22.955Z,27.08
2018-08-13T08:35:26.437Z,27.22
2018-08-13T08:39:29.913Z,27.37
2018-08-13T08:43:33.368Z,27.50
2018-08-13T08:47:37.164Z,27.67
2018-08-13T08:51:40.913Z,27.84
2018-08-13T08:55:44.887Z,27.95
2018-08-13T08:59:48.326Z,28.07
2018-08-13T09:03:53.851Z,28.06
2018-08-13T09:07:57.368Z,28.11
2018-08-13T09:12:00.812Z,28.22
2018-08-13T09:16:04.490Z,28.34
2018-08-13T09:20:19.349Z,28.45
2018-08-13T09:24:33.846Z,28.65
2018-08-13T09:28:48.657Z,28.82
2018-08-13T09:33:03.241Z,28.93
2018-08-13T09:37:06.711Z,29.07
2018-08-13T09:41:10.182Z,29.23
2018-08-13T09:45:13.708Z,29.37
2018-08-13T09:49:17.172Z,29.53
2018-08-13T09:53:20.630Z,29.62
2018-08-13T09:57:24.138Z,29.69
2018-08-13T10:01:27.599Z,29.72
2018-08-13T10:05:31.206Z,29.83
2018-08-13T10:09:34.900Z,29.99
2018-08-13T10:13:38.481Z,30.11
2018-08-13T10:17:41.993Z,30.26
2018-08-13T10:21:45.689Z,30.38
2018-08-13T10:25:49.304Z,30.50
2018-08-13T10:29:53.121Z,30.61
2018-08-13T10:33:56.893Z,30.69
2018-08-13T10:38:00.494Z,30.83
2018-08-13T10:42:04.208Z,30.98
2018-08-13T10:46:08.142Z,31.12
2018-08-13T10:50:13.201Z,31.25
2018-08-13T10:54:16.721Z,31.38
2018-08-13T10:58:20.185Z,31.53
2018-08-13T11:02:23.627Z,31.59
2018-08-13T11:06:27.212Z,31.70
2018-08-13T11:10:30.795Z,31.79
2018-08-13T11:14:34.489Z,31.94
2018-08-13T11:18:38.146Z,31.95
2018-08-13T11:22:42.694Z,31.95
2018-08-13T11:26:46.310Z,32.00
2018-08-13T11:30:49.813Z,32.07
2018-08-13T11:34:53.356Z,32.17
2018-08-13T11:38:56.873Z,32.26
2018-08-13T11:43:00.375Z,32.34
2018-08-13T11:47:03.920Z,32.44
2018-08-13T11:51:07.402Z,32.56
2018-08-13T11:55:10.943Z,32.70
2018-08-13T11:59:14.404Z,32.80
2018-08-13T12:03:17.882Z,32.93
2018-08-13T12:07:21.454Z,33.00
2018-08-13T12:11:24.906Z,33.06
2018-08-13T12:15:28.364Z,33.15
2018-08-13T12:19:31.948Z,33.20
2018-08-13T12:23:35.384Z,33.24
2018-08-13T12:27:38.916Z,33.27
2018-08-13T12:31:42.391Z,33.30
2018-08-13T12:35:45.852Z,33.30
2018-08-13T12:39:49.297Z,33.31
2018-08-13T12:43:53.614Z,33.33
2018-08-13T12:48:03.799Z,33.33
2018-08-13T12:52:07.800Z,33.30
2018-08-13T12:56:11.306Z,33.35
2018-08-13T13:00:15.826Z,33.39
2018-08-13T13:04:19.311Z,33.46
2018-08-13T13:08:22.736Z,33.47
2018-08-13T13:12:26.211Z,33.49
2018-08-13T13:16:31.790Z,33.56
2018-08-13T13:20:35.323Z,33.57
2018-08-13T13:24:38.816Z,33.55
2018-08-13T13:28:42.767Z,33.55
2018-08-13T13:32:46.380Z,33.52
2018-08-13T13:36:49.890Z,33.42
2018-08-13T13:40:53.416Z,33.32
2018-08-13T13:44:57.492Z,33.27
2018-08-13T13:49:01.018Z,33.31
2018-08-13T13:53:04.555Z,33.35
2018-08-13T13:57:07.998Z,33.34
2018-08-13T14:01:11.510Z,33.29
2018-08-13T14:05:15.616Z,33.27
2018-08-13T14:09:19.109Z,33.30
2018-08-13T14:13:22.607Z,33.28
2018-08-13T14:17:26.038Z,33.27
2018-08-13T14:21:29.864Z,33.34
2018-08-13T14:25:33.354Z,33.38
2018-08-13T14:29:36.812Z,33.34
2018-08-13T14:33:40.287Z,33.36
2018-08-13T14:37:43.948Z,33.34
2018-08-13T14:41:47.396Z,33.35
2018-08-13T14:45:51.377Z,33.34
2018-08-13T14:49:54.929Z,33.33
2018-08-13T14:53:58.397Z,33.30
2018-08-13T14:58:02.818Z,33.24
2018-08-13T15:02:06.395Z,33.19
2018-08-13T15:06:09.933Z,33.11
2018-08-13T15:10:17.477Z,33.06
2018-08-13T15:14:20.995Z,33.06
2018-08-13T15:18:24.522Z,33.05
2018-08-13T15:22:28.039Z,33.01
2018-08-13T15:26:31.635Z,32.94
2018-08-13T15:30:35.110Z,32.88
2018-08-13T15:34:38.602Z,32.80
2018-08-13T15:38:42.093Z,32.77
2018-08-13T15:42:45.608Z,32.73
2018-08-13T15:46:49.136Z,32.68
2018-08-13T15:50:52.601Z,32.61
2018-08-13T15:54:56.093Z,32.59
2018-08-13T15:58:59.587Z,32.53
2018-08-13T16:03:03.122Z,32.46
2018-08-13T16:07:08.523Z,32.42
2018-08-13T16:11:12.038Z,32.39
2018-08-13T16:15:15.896Z,32.33
2018-08-13T16:19:19.405Z,32.26
2018-08-13T16:23:22.926Z,32.20
2018-08-13T16:27:26.476Z,32.11
2018-08-13T16:31:30.031Z,32.08
2018-08-13T16:35:33.560Z,32.02
2018-08-13T16:39:37.163Z,31.96
2018-08-13T16:43:40.712Z,31.88
2018-08-13T16:47:44.408Z,31.84
2018-08-13T16:51:48.080Z,31.78
2018-08-13T16:55:51.684Z,31.69
2018-08-13T16:59:55.292Z,31.65
2018-08-13T17:03:59.037Z,31.56
2018-08-13T17:08:02.829Z,31.54
2018-08-13T17:12:06.673Z,31.50
2018-08-13T17:16:11.129Z,31.48
2018-08-13T17:20:16.927Z,31.44
2018-08-13T17:24:20.808Z,31.37
2018-08-13T17:28:34.645Z,31.27
2018-08-13T17:32:48.479Z,31.22
2018-08-13T17:36:52.138Z,31.20
2018-08-13T17:40:55.607Z,31.13
2018-08-13T17:44:59.156Z,31.05
2018-08-13T17:49:02.640Z,30.98
2018-08-13T17:53:07.451Z,30.89
2018-08-13T17:57:10.924Z,30.78
2018-08-13T18:01:14.379Z,30.73
2018-08-13T18:05:19.985Z,30.64
2018-08-13T18:09:23.451Z,30.56
2018-08-13T18:13:26.890Z,30.45
2018-08-13T18:17:30.320Z,30.35
2018-08-13T18:21:33.811Z,30.28
2018-08-13T18:25:37.270Z,30.21
2018-08-13T18:29:40.722Z,30.15
2018-08-13T18:33:44.233Z,30.09
2018-08-13T18:37:48.062Z,29.97
2018-08-13T18:41:51.571Z,29.89
2018-08-13T18:45:55.317Z,29.83
2018-08-13T18:49:58.923Z,29.74
2018-08-13T18:54:02.754Z,29.64
2018-08-13T18:58:06.398Z,29.59
2018-08-13T19:02:11.179Z,29.52
2018-08-13T19:06:14.766Z,29.45
2018-08-13T19:10:19.034Z,29.39
2018-08-13T19:14:22.887Z,29.32
2018-08-13T19:18:26.555Z,29.24
2018-08-13T19:22:30.052Z,29.18
2018-08-13T19:26:36.875Z,29.08
2018-08-13T19:30:45.453Z,29.01
2018-08-13T19:34:49.718Z,28.95
2018-08-13T19:38:54.998Z,28.90
2018-08-13T19:42:59.511Z,28.84
2018-08-13T19:47:04.978Z,28.76
2018-08-13T19:51:10.852Z,28.71
2018-08-13T19:55:15.385Z,28.67
2018-08-13T19:59:19.843Z,28.61
2018-08-13T20:03:25.051Z,28.53
2018-08-13T20:07:29.394Z,28.46
2018-08-13T20:11:34.323Z,28.43
2018-08-13T20:15:39.581Z,28.36
2018-08-13T20:19:45.059Z,28.32
2018-08-13T20:23:50.870Z,28.25
2018-08-13T20:27:55.688Z,28.24
2018-08-13T20:32:01.434Z,28.23
2018-08-13T20:36:06.243Z,28.19
2018-08-13T20:40:14.436Z,28.15
2018-08-13T20:44:19.558Z,28.14
2018-08-13T20:48:24.605Z,28.12
2018-08-13T20:52:28.797Z,28.08
2018-08-13T20:56:33.115Z,28.03
2018-08-13T21:00:42.973Z,28.00
2018-08-13T21:04:47.616Z,27.95
2018-08-13T21:08:52.235Z,27.90
2018-08-13T21:13:01.424Z,27.84
2018-08-13T21:21:40.463Z,27.43
2018-08-13T21:26:03.325Z,27.30
2018-08-13T21:30:18.017Z,27.15
2018-08-13T21:34:22.510Z,27.00
2018-08-13T21:38:25.972Z,26.92
2018-08-13T21:42:29.462Z,26.85
2018-08-13T21:46:32.940Z,26.75
2018-08-13T21:50:36.415Z,26.65
2018-08-13T21:59:19.323Z,26.38
2018-08-13T22:07:43.995Z,26.08
2018-08-13T22:11:51.282Z,25.93
2018-08-13T22:16:07.072Z,25.83
2018-08-13T23:28:47.348Z,24.47
2018-08-13T23:37:35.613Z,24.35
2018-08-13T23:41:54.915Z,24.35
2018-08-13T23:46:16.472Z,24.29
2018-08-13T23:54:39.984Z,24.23
2018-08-13T23:58:43.459Z,24.21
